Time;durP1;ratioP1;P1;durP2;ratioP2;P2;SDS_P1;SDS_P2;PMS_P1;PMS_P2;Temp;Humidity;BMP_temperature;BMP_pressure;BME280_temperature;BME280_humidity;BME280_pressure;Samples;Min_cycle;Max_cycle;Signal;HPM_P1;HPM_P2
2022/09/21 00:02:02;;;;;;;4.43;2.28;;;;;;;;;;5052300;28;20351;-67
2022/09/21 00:04:27;;;;;;;4.35;2.30;;;;;;;;;;5052369;28;20028;-70
2022/09/21 00:06:53;;;;;;;4.70;2.35;;;;;;;;;;5052003;28;20044;-75
2022/09/21 00:09:18;;;;;;;5.13;2.53;;;;;;;;;;5052353;28;20044;-68
2022/09/21 00:11:44;;;;;;;5.07;2.45;;;;;;;;;;5052193;28;20021;-72
2022/09/21 00:14:12;;;;;;;4.28;2.40;;;;;;;;;;5052262;28;20027;-75
2022/09/21 00:16:39;;;;;;;3.95;2.13;;;;;;;;;;5052128;28;20021;-76
2022/09/21 00:19:05;;;;;;;4.00;2.45;;;;;;;;;;5052032;28;20086;-75
2022/09/21 00:21:33;;;;;;;4.47;2.65;;;;;;;;;;5051453;28;20437;-76
2022/09/21 00:23:58;;;;;;;3.58;1.92;;;;;;;;;;5050893;28;20025;-68
2022/09/21 00:26:25;;;;;;;5.32;2.30;;;;;;;;;;5051978;28;20021;-75
2022/09/21 00:28:56;;;;;;;3.63;2.10;;;;;;;;;;5053453;28;20021;-74
2022/09/21 00:31:23;;;;;;;4.57;1.90;;;;;;;;;;5054597;28;20470;-74
2022/09/21 00:33:50;;;;;;;2.97;1.80;;;;;;;;;;5055666;28;20068;-76
2022/09/21 00:36:17;;;;;;;3.25;1.77;;;;;;;;;;5055354;28;20024;-67
2022/09/21 00:38:48;;;;;;;3.28;1.88;;;;;;;;;;5055732;28;20041;-67
2022/09/21 00:41:13;;;;;;;2.97;1.70;;;;;;;;;;5055670;28;20135;-70
2022/09/21 00:43:46;;;;;;;2.72;2.03;;;;;;;;;;5055480;28;20108;-68
2022/09/21 00:46:25;;;;;;;3.42;1.88;;;;;;;;;;5055425;28;20485;-76
2022/09/21 00:48:50;;;;;;;3.33;2.10;;;;;;;;;;5055638;28;20029;-68
2022/09/21 00:51:16;;;;;;;3.22;2.05;;;;;;;;;;5055202;28;20160;-70
2022/09/21 00:53:42;;;;;;;2.40;1.63;;;;;;;;;;5055285;28;20071;-76
2022/09/21 00:56:09;;;;;;;3.22;2.03;;;;;;;;;;5055114;28;20029;-76
2022/09/21 00:58:44;;;;;;;3.13;1.92;;;;;;;;;;5055250;28;20457;-68
2022/09/21 01:01:11;;;;;;;4.22;2.03;;;;;;;;;;5055169;28;20076;-68
2022/09/21 01:03:38;;;;;;;3.35;1.90;;;;;;;;;;5055028;28;20378;-69
2022/09/21 01:06:03;;;;;;;3.75;2.08;;;;;;;;;;5054965;28;20056;-72
2022/09/21 01:08:29;;;;;;;5.40;1.95;;;;;;;;;;5055149;28;20476;-70
2022/09/21 01:11:21;;;;;;;2.92;1.80;;;;;;;;;;5054956;28;20033;-68
2022/09/21 01:14:23;;;;;;;2.75;1.60;;;;;;;;;;5054889;28;20470;-70
2022/09/21 01:17:17;;;;;;;3.78;1.92;;;;;;;;;;5055048;28;20363;-69
2022/09/21 01:20:08;;;;;;;3.45;1.70;;;;;;;;;;5053083;28;20029;-70
2022/09/21 01:23:15;;;;;;;3.45;1.95;;;;;;;;;;5054902;28;20536;-68
2022/09/21 01:26:11;;;;;;;6.28;2.00;;;;;;;;;;5054219;28;20064;-67
2022/09/21 01:29:10;;;;;;;2.58;1.83;;;;;;;;;;5054974;28;20025;-67
2022/09/21 01:31:40;;;;;;;3.92;1.67;;;;;;;;;;5054648;28;20040;-68
2022/09/21 01:34:18;;;;;;;3.10;1.83;;;;;;;;;;5054585;28;20021;-67
2022/09/21 01:36:47;;;;;;;3.55;2.10;;;;;;;;;;5054474;28;20029;-68
2022/09/21 01:39:15;;;;;;;4.10;1.98;;;;;;;;;;5054470;28;20033;-69
2022/09/21 01:41:43;;;;;;;3.55;2.05;;;;;;;;;;5054395;28;20079;-69
2022/09/21 01:44:14;;;;;;;4.82;2.17;;;;;;;;;;5054443;28;20021;-76
2022/09/21 01:46:40;;;;;;;3.60;2.10;;;;;;;;;;5054432;28;20025;-68
2022/09/21 01:49:14;;;;;;;4.15;1.85;;;;;;;;;;5054191;28;20474;-67
2022/09/21 01:51:49;;;;;;;5.70;1.90;;;;;;;;;;5054177;28;20045;-72
2022/09/21 01:54:23;;;;;;;3.83;1.73;;;;;;;;;;5054388;28;20025;-69
2022/09/21 01:57:06;;;;;;;3.60;2.00;;;;;;;;;;5054238;28;20036;-75
2022/09/21 01:59:46;;;;;;;3.03;1.83;;;;;;;;;;5053978;28;20119;-74
2022/09/21 02:02:19;;;;;;;5.22;1.90;;;;;;;;;;5053994;28;20497;-68
2022/09/21 02:04:45;;;;;;;3.15;1.80;;;;;;;;;;5053777;28;20024;-68
2022/09/21 02:07:10;;;;;;;3.38;1.95;;;;;;;;;;5054046;28;20186;-71
2022/09/21 02:09:37;;;;;;;3.47;1.70;;;;;;;;;;5053862;28;20027;-69
2022/09/21 02:12:04;;;;;;;3.45;1.90;;;;;;;;;;5053974;28;20031;-68
2022/09/21 02:14:32;;;;;;;2.60;1.83;;;;;;;;;;5053880;28;20033;-68
2022/09/21 02:17:34;;;;;;;4.30;2.00;;;;;;;;;;5053535;28;20412;-71
2022/09/21 02:20:07;;;;;;;3.53;1.90;;;;;;;;;;5053512;28;20045;-69
2022/09/21 02:22:55;;;;;;;2.63;1.83;;;;;;;;;;5053627;28;20033;-74
2022/09/21 02:25:36;;;;;;;2.67;1.65;;;;;;;;;;5053627;28;20029;-72
2022/09/21 02:28:20;;;;;;;2.85;1.60;;;;;;;;;;5053831;28;20021;-70
2022/09/21 02:30:54;;;;;;;4.50;1.98;;;;;;;;;;5053458;28;20032;-68
2022/09/21 02:33:31;;;;;;;3.00;1.88;;;;;;;;;;5053409;28;20382;-69
2022/09/21 02:36:14;;;;;;;2.53;1.65;;;;;;;;;;5052773;28;20036;-68
2022/09/21 02:38:55;;;;;;;4.32;2.00;;;;;;;;;;5053414;28;20029;-76
2022/09/21 02:41:33;;;;;;;2.58;1.80;;;;;;;;;;5053317;28;20494;-76
2022/09/21 02:44:14;;;;;;;2.53;1.75;;;;;;;;;;5053344;28;20143;-76
2022/09/21 02:46:46;;;;;;;2.30;1.70;;;;;;;;;;5053103;28;20081;-76
2022/09/21 02:49:26;;;;;;;2.70;1.80;;;;;;;;;;5053294;28;20059;-76
2022/09/21 02:51:57;;;;;;;3.00;1.90;;;;;;;;;;5052758;28;20044;-74
2022/09/21 02:54:26;;;;;;;2.50;1.88;;;;;;;;;;5053087;28;20021;-76
2022/09/21 02:56:53;;;;;;;3.97;1.67;;;;;;;;;;5052978;28;20158;-71
2022/09/21 02:59:22;;;;;;;3.97;1.92;;;;;;;;;;5052857;28;20040;-67
2022/09/21 03:01:48;;;;;;;3.40;1.75;;;;;;;;;;5052581;28;20033;-68
2022/09/21 03:04:14;;;;;;;4.50;1.83;;;;;;;;;;5053005;28;20062;-71
2022/09/21 03:06:40;;;;;;;2.88;1.70;;;;;;;;;;5052987;28;20083;-76
2022/09/21 03:09:06;;;;;;;3.55;1.85;;;;;;;;;;5052973;28;20443;-76
2022/09/21 03:11:32;;;;;;;4.35;1.80;;;;;;;;;;5052786;28;20036;-70
2022/09/21 03:13:58;;;;;;;4.20;2.45;;;;;;;;;;5052798;28;20028;-76
2022/09/21 03:16:24;;;;;;;3.58;1.92;;;;;;;;;;5052580;28;20087;-72
2022/09/21 03:18:49;;;;;;;2.03;1.55;;;;;;;;;;5052695;28;20549;-75
2022/09/21 03:21:15;;;;;;;3.45;1.80;;;;;;;;;;5052243;28;20037;-76
2022/09/21 03:23:40;;;;;;;4.55;2.00;;;;;;;;;;5052590;28;20017;-74
2022/09/21 03:26:07;;;;;;;3.63;1.83;;;;;;;;;;5052540;28;20112;-75
2022/09/21 03:28:33;;;;;;;2.88;2.00;;;;;;;;;;5052643;28;20028;-75
2022/09/21 03:30:59;;;;;;;2.97;1.70;;;;;;;;;;5052331;28;20024;-74
2022/09/21 03:33:24;;;;;;;2.22;1.67;;;;;;;;;;5052586;28;20033;-74
2022/09/21 03:35:51;;;;;;;5.13;2.10;;;;;;;;;;5052455;28;20033;-67
2022/09/21 03:38:19;;;;;;;6.35;2.30;;;;;;;;;;5052361;28;20029;-67
2022/09/21 03:40:48;;;;;;;3.50;2.20;;;;;;;;;;5052502;28;20021;-71
2022/09/21 03:43:15;;;;;;;4.97;1.90;;;;;;;;;;5052577;28;20039;-69
2022/09/21 03:45:41;;;;;;;4.93;1.95;;;;;;;;;;5052064;28;20466;-68
2022/09/21 03:48:08;;;;;;;3.42;1.90;;;;;;;;;;5052192;28;20033;-75
2022/09/21 03:50:33;;;;;;;3.25;1.92;;;;;;;;;;5052466;28;20104;-75
2022/09/21 03:52:59;;;;;;;2.75;2.00;;;;;;;;;;5052328;28;20049;-68
2022/09/21 03:55:25;;;;;;;4.30;2.50;;;;;;;;;;5052368;28;20075;-68
2022/09/21 03:57:51;;;;;;;4.03;1.90;;;;;;;;;;5052160;28;20025;-74
2022/09/21 04:00:17;;;;;;;3.15;2.10;;;;;;;;;;5052155;28;20031;-70
2022/09/21 04:02:42;;;;;;;3.58;2.03;;;;;;;;;;5053369;28;20021;-67
2022/09/21 04:05:10;;;;;;;4.00;2.10;;;;;;;;;;5056254;28;20492;-75
2022/09/21 04:07:36;;;;;;;3.75;2.05;;;;;;;;;;5056067;28;20039;-75
2022/09/21 04:10:06;;;;;;;5.28;2.40;;;;;;;;;;5056442;28;20426;-71
2022/09/21 04:12:33;;;;;;;3.00;2.15;;;;;;;;;;5056289;28;20127;-68
2022/09/21 04:15:06;;;;;;;5.05;2.60;;;;;;;;;;5055598;28;20573;-68
2022/09/21 04:17:32;;;;;;;4.38;2.60;;;;;;;;;;5056097;28;20033;-72
2022/09/21 04:19:58;;;;;;;3.70;2.30;;;;;;;;;;5055882;28;20052;-67
2022/09/21 04:22:23;;;;;;;3.75;2.40;;;;;;;;;;5055903;28;20034;-67
2022/09/21 04:24:49;;;;;;;3.03;2.25;;;;;;;;;;5055885;28;20024;-73
2022/09/21 04:27:15;;;;;;;3.95;2.63;;;;;;;;;;5055944;28;20017;-72
2022/09/21 04:29:41;;;;;;;5.57;2.28;;;;;;;;;;5055642;28;20032;-72
2022/09/21 04:32:06;;;;;;;4.20;2.38;;;;;;;;;;5056043;28;20103;-68
2022/09/21 04:34:32;;;;;;;3.55;2.47;;;;;;;;;;5055829;28;20513;-76
2022/09/21 04:36:58;;;;;;;3.55;2.38;;;;;;;;;;5055571;28;20104;-68
2022/09/21 04:39:25;;;;;;;3.45;2.58;;;;;;;;;;5055348;28;20044;-68
2022/09/21 04:41:50;;;;;;;3.22;2.58;;;;;;;;;;5055687;28;20445;-69
2022/09/21 04:44:19;;;;;;;3.50;2.17;;;;;;;;;;5055216;28;20110;-69
2022/09/21 04:46:44;;;;;;;2.60;2.10;;;;;;;;;;5055553;28;20057;-67
2022/09/21 04:49:10;;;;;;;2.92;2.03;;;;;;;;;;5055471;28;20379;-68
2022/09/21 04:51:36;;;;;;;7.82;2.78;;;;;;;;;;5055020;28;20074;-76
2022/09/21 04:54:02;;;;;;;3.67;2.45;;;;;;;;;;5055350;28;20095;-71
2022/09/21 04:56:28;;;;;;;3.75;2.42;;;;;;;;;;5055165;28;20056;-72
2022/09/21 04:58:53;;;;;;;5.00;2.97;;;;;;;;;;5055143;28;20592;-76
2022/09/21 05:01:19;;;;;;;6.70;2.50;;;;;;;;;;5055122;28;20112;-69
2022/09/21 05:03:44;;;;;;;3.88;2.42;;;;;;;;;;5055271;28;20033;-68
2022/09/21 05:06:12;;;;;;;4.13;2.35;;;;;;;;;;5055148;28;20025;-68
2022/09/21 05:11:23;;;;;;;3.55;2.33;;;;;;;;;;5054989;28;20101;-67
2022/09/21 05:13:49;;;;;;;4.65;2.30;;;;;;;;;;5054618;28;20033;-71
2022/09/21 05:16:16;;;;;;;4.00;2.40;;;;;;;;;;5054892;28;20029;-68
2022/09/21 05:18:42;;;;;;;2.65;2.15;;;;;;;;;;5054823;28;20021;-68
2022/09/21 05:21:10;;;;;;;3.55;2.47;;;;;;;;;;5054561;28;20041;-71
2022/09/21 05:23:36;;;;;;;5.07;2.60;;;;;;;;;;5054647;28;20017;-71
2022/09/21 05:26:01;;;;;;;4.03;2.60;;;;;;;;;;5054508;28;20021;-71
2022/09/21 05:28:27;;;;;;;5.07;2.67;;;;;;;;;;5054816;28;20462;-72
2022/09/21 05:31:36;;;;;;;5.75;3.22;;;;;;;;;;5054553;28;20032;-72
2022/09/21 05:34:47;;;;;;;5.72;3.63;;;;;;;;;;5032713;28;20467;-69
2022/09/21 05:37:31;;;;;;;;;;;;;;;;;;5033012;28;20530;-68
2022/09/21 05:39:57;;;;;;;4.68;3.10;;;;;;;;;;5032052;28;19960;-67
2022/09/21 05:42:22;;;;;;;4.50;3.22;;;;;;;;;;5032457;28;20057;-67
2022/09/21 05:44:49;;;;;;;5.45;2.88;;;;;;;;;;5032304;28;20043;-70
2022/09/21 05:47:42;;;;;;;4.35;2.70;;;;;;;;;;5032471;28;20548;-74
2022/09/21 05:50:29;;;;;;;5.07;2.88;;;;;;;;;;5032250;28;20033;-76
2022/09/21 05:53:12;;;;;;;10.07;4.53;;;;;;;;;;5050971;28;20107;-74
2022/09/21 05:55:50;;;;;;;6.15;3.10;;;;;;;;;;5051865;28;20067;-76
2022/09/21 05:58:48;;;;;;;5.68;3.20;;;;;;;;;;5052054;28;20039;-76
2022/09/21 06:01:35;;;;;;;6.03;3.72;;;;;;;;;;4992768;28;20042;-74
2022/09/21 06:04:01;;;;;;;6.60;4.50;;;;;;;;;;4992724;28;20038;-76
2022/09/21 06:06:27;;;;;;;7.85;3.90;;;;;;;;;;4992566;28;20447;-77
2022/09/21 06:08:52;;;;;;;4.18;3.03;;;;;;;;;;4992747;28;20034;-69
2022/09/21 06:11:18;;;;;;;4.15;2.50;;;;;;;;;;4976644;28;20039;-76
2022/09/21 06:13:44;;;;;;;3.72;2.83;;;;;;;;;;4972922;28;20041;-76
2022/09/21 06:16:10;;;;;;;6.07;2.25;;;;;;;;;;4972902;28;20035;-73
2022/09/21 06:18:39;;;;;;;3.60;2.38;;;;;;;;;;4973044;28;20082;-69
2022/09/21 06:21:06;;;;;;;4.22;2.70;;;;;;;;;;4977460;28;20061;-75
2022/09/21 06:23:32;;;;;;;6.18;2.60;;;;;;;;;;4991991;28;20125;-75
2022/09/21 06:25:57;;;;;;;6.13;2.50;;;;;;;;;;4991611;28;20181;-75
2022/09/21 06:28:23;;;;;;;4.72;2.70;;;;;;;;;;4992310;28;20467;-73
2022/09/21 06:30:53;;;;;;;4.82;2.47;;;;;;;;;;4992244;28;20480;-76
2022/09/21 06:33:20;;;;;;;;;;;;;;;;;;4976389;28;20030;-70
2022/09/21 06:35:59;;;;;;;3.20;2.40;;;;;;;;;;4991997;28;20399;-73
2022/09/21 06:38:25;;;;;;;3.00;2.03;;;;;;;;;;5045893;28;20405;-74
2022/09/21 06:40:51;;;;;;;3.22;1.73;;;;;;;;;;5073488;28;20024;-75
2022/09/21 06:43:17;;;;;;;5.05;2.00;;;;;;;;;;5073355;28;20462;-74
2022/09/21 06:45:43;;;;;;;4.35;1.70;;;;;;;;;;5073151;28;20048;-75
2022/09/21 06:48:09;;;;;;;3.33;1.95;;;;;;;;;;5049911;28;20471;-67
2022/09/21 06:50:34;;;;;;;3.67;1.83;;;;;;;;;;5044111;28;20037;-73
2022/09/21 06:53:01;;;;;;;3.05;1.98;;;;;;;;;;5052942;28;20032;-73
2022/09/21 06:55:28;;;;;;;3.80;2.20;;;;;;;;;;5051780;28;20033;-68
2022/09/21 06:57:59;;;;;;;3.60;2.15;;;;;;;;;;5052976;28;20374;-69
2022/09/21 07:00:24;;;;;;;5.78;2.63;;;;;;;;;;5050090;28;20029;-76
2022/09/21 07:02:50;;;;;;;3.42;1.95;;;;;;;;;;5033119;28;20044;-74
2022/09/21 07:05:15;;;;;;;3.58;1.77;;;;;;;;;;5044793;28;20021;-73
2022/09/21 07:07:41;;;;;;;3.70;1.50;;;;;;;;;;5052353;28;20025;-73
2022/09/21 07:10:07;;;;;;;2.45;1.52;;;;;;;;;;5051568;28;20462;-74
2022/09/21 07:12:33;;;;;;;2.63;1.30;;;;;;;;;;5052609;28;20382;-70
2022/09/21 07:14:59;;;;;;;6.22;1.52;;;;;;;;;;5052757;28;20067;-70
2022/09/21 07:17:24;;;;;;;3.20;1.45;;;;;;;;;;5052587;28;20117;-74
2022/09/21 07:19:50;;;;;;;2.55;1.50;;;;;;;;;;5052383;28;20076;-69
2022/09/21 07:22:15;;;;;;;3.35;1.50;;;;;;;;;;5052105;28;20025;-74
2022/09/21 07:24:41;;;;;;;2.20;1.15;;;;;;;;;;5052481;28;20494;-73
2022/09/21 07:27:06;;;;;;;3.45;1.45;;;;;;;;;;5052542;28;20029;-72
2022/09/21 07:29:32;;;;;;;2.40;1.58;;;;;;;;;;5052642;28;20059;-67
2022/09/21 07:31:57;;;;;;;2.78;1.50;;;;;;;;;;5052394;28;20458;-72
2022/09/21 07:34:23;;;;;;;3.20;1.88;;;;;;;;;;5052302;28;20732;-73
2022/09/21 07:36:48;;;;;;;3.30;1.60;;;;;;;;;;5051968;28;20108;-74
2022/09/21 07:39:14;;;;;;;3.47;1.42;;;;;;;;;;5052407;28;20485;-74
2022/09/21 07:41:39;;;;;;;3.00;1.60;;;;;;;;;;5052463;28;20112;-74
2022/09/21 07:44:05;;;;;;;2.58;1.55;;;;;;;;;;5052197;28;20033;-71
2022/09/21 07:46:30;;;;;;;3.75;1.80;;;;;;;;;;5052407;28;20091;-68
2022/09/21 07:48:56;;;;;;;4.13;1.85;;;;;;;;;;5052128;28;20108;-73
2022/09/21 07:51:22;;;;;;;4.03;1.65;;;;;;;;;;5052001;28;20466;-73
2022/09/21 07:53:55;;;;;;;4.70;2.30;;;;;;;;;;5034005;28;20021;-68
2022/09/21 07:56:21;;;;;;;3.00;1.83;;;;;;;;;;5032265;28;20044;-71
2022/09/21 07:59:05;;;;;;;6.80;2.00;;;;;;;;;;5032130;28;20021;-73
2022/09/21 08:01:33;;;;;;;3.58;1.92;;;;;;;;;;5046022;28;20033;-68
2022/09/21 08:03:59;;;;;;;2.90;1.70;;;;;;;;;;5052756;28;20055;-67
2022/09/21 08:06:27;;;;;;;4.85;1.95;;;;;;;;;;5052036;28;20025;-67
2022/09/21 08:08:52;;;;;;;7.57;1.73;;;;;;;;;;5052858;28;20029;-69
2022/09/21 08:11:24;;;;;;;3.17;1.73;;;;;;;;;;5052381;28;20077;-68
2022/09/21 08:13:55;;;;;;;9.68;1.77;;;;;;;;;;5052820;28;20025;-68
2022/09/21 08:16:21;;;;;;;3.10;1.60;;;;;;;;;;5052267;28;20131;-68
2022/09/21 08:18:46;;;;;;;6.95;1.80;;;;;;;;;;5052527;28;20497;-71
2022/09/21 08:21:12;;;;;;;5.30;1.73;;;;;;;;;;5051971;28;20055;-67
2022/09/21 08:23:41;;;;;;;4.82;1.50;;;;;;;;;;5051515;28;20029;-70
2022/09/21 08:26:09;;;;;;;4.25;1.58;;;;;;;;;;5051359;28;20447;-67
2022/09/21 08:28:35;;;;;;;3.28;1.10;;;;;;;;;;5051700;28;20485;-74
2022/09/21 08:31:02;;;;;;;3.08;1.75;;;;;;;;;;5051913;28;20029;-67
2022/09/21 08:33:28;;;;;;;4.90;1.85;;;;;;;;;;5051337;28;20486;-68
2022/09/21 08:35:54;;;;;;;3.35;1.42;;;;;;;;;;5051386;28;20086;-67
2022/09/21 08:38:20;;;;;;;1.60;0.95;;;;;;;;;;5051593;28;20033;-68
2022/09/21 08:40:46;;;;;;;4.45;1.55;;;;;;;;;;5051520;28;20029;-67
2022/09/21 08:43:34;;;;;;;3.08;1.38;;;;;;;;;;5051609;28;20104;-67
2022/09/21 08:46:05;;;;;;;4.13;1.27;;;;;;;;;;5051097;28;20039;-67
2022/09/21 08:48:39;;;;;;;14.65;2.08;;;;;;;;;;5051745;28;20033;-69
2022/09/21 08:51:08;;;;;;;3.30;1.20;;;;;;;;;;5053949;28;20112;-68
2022/09/21 08:53:40;;;;;;;3.20;1.30;;;;;;;;;;5055155;28;20028;-67
2022/09/21 08:56:11;;;;;;;4.00;1.30;;;;;;;;;;5055132;28;20036;-66
2022/09/21 08:58:39;;;;;;;4.43;1.38;;;;;;;;;;5054911;28;20112;-68
2022/09/21 09:01:14;;;;;;;3.53;1.30;;;;;;;;;;5054962;28;20112;-69
2022/09/21 09:04:15;;;;;;;2.55;1.13;;;;;;;;;;5054719;28;20057;-75
2022/09/21 09:06:58;;;;;;;2.40;1.23;;;;;;;;;;5054809;28;20029;-76
2022/09/21 09:09:48;;;;;;;8.50;1.42;;;;;;;;;;5054996;28;20052;-76
2022/09/21 09:12:34;;;;;;;2.55;0.90;;;;;;;;;;5054499;28;20029;-76
2022/09/21 09:15:03;;;;;;;3.33;1.05;;;;;;;;;;5054759;28;20391;-74
2022/09/21 09:17:47;;;;;;;6.32;1.30;;;;;;;;;;5054409;28;20078;-76
2022/09/21 09:20:20;;;;;;;1.17;0.85;;;;;;;;;;5054364;28;20049;-77
2022/09/21 09:22:49;;;;;;;4.18;0.95;;;;;;;;;;5054136;28;20037;-74
2022/09/21 09:25:23;;;;;;;1.23;0.82;;;;;;;;;;5054534;28;20074;-71
2022/09/21 09:28:00;;;;;;;1.88;0.88;;;;;;;;;;5053548;28;20033;-69
2022/09/21 09:30:30;;;;;;;3.05;1.20;;;;;;;;;;5054503;28;20493;-75
2022/09/21 09:33:02;;;;;;;1.23;0.68;;;;;;;;;;5054039;28;20036;-67
2022/09/21 09:35:32;;;;;;;11.85;1.35;;;;;;;;;;5054282;28;20017;-76
2022/09/21 09:38:10;;;;;;;;;;;;;;;;;;5054537;28;20037;-76
2022/09/21 09:41:16;;;;;;;3.90;0.68;;;;;;;;;;5053908;28;19966;-76
2022/09/21 09:44:12;;;;;;;5.95;1.10;;;;;;;;;;5031522;28;20037;-77
2022/09/21 09:46:59;;;;;;;3.95;0.70;;;;;;;;;;5032000;28;20084;-75
2022/09/21 09:50:09;;;;;;;1.70;0.70;;;;;;;;;;5033103;28;20633;-76
2022/09/21 09:52:35;;;;;;;2.58;0.90;;;;;;;;;;4945837;28;20036;-72
2022/09/21 09:55:20;;;;;;;4.10;1.08;;;;;;;;;;4953809;29;20150;-74
2022/09/21 09:57:48;;;;;;;4.30;1.30;;;;;;;;;;4953494;29;20039;-74
2022/09/21 10:00:16;;;;;;;3.03;0.90;;;;;;;;;;4952146;28;20078;-69
2022/09/21 10:02:48;;;;;;;1.63;1.00;;;;;;;;;;4953238;29;20043;-66
2022/09/21 10:05:34;;;;;;;1.73;0.70;;;;;;;;;;4953649;29;20031;-74
2022/09/21 10:08:00;;;;;;;7.72;1.00;;;;;;;;;;4953467;29;20040;-71
2022/09/21 10:10:31;;;;;;;2.15;0.50;;;;;;;;;;4952781;29;20051;-73
2022/09/21 10:13:15;;;;;;;1.73;1.10;;;;;;;;;;4953353;28;20075;-75
2022/09/21 10:16:02;;;;;;;1.90;1.15;;;;;;;;;;4952948;29;20591;-72
2022/09/21 10:18:33;;;;;;;5.75;1.02;;;;;;;;;;4952738;29;20476;-65
2022/09/21 10:21:06;;;;;;;1.80;0.50;;;;;;;;;;4956693;28;20070;-74
2022/09/21 10:23:32;;;;;;;9.52;1.30;;;;;;;;;;5010204;28;20033;-74
2022/09/21 10:26:05;;;;;;;5.72;1.40;;;;;;;;;;5048704;28;20021;-74
2022/09/21 10:28:31;;;;;;;4.97;1.50;;;;;;;;;;5053246;28;20374;-65
2022/09/21 10:31:16;;;;;;;1.00;0.80;;;;;;;;;;5053058;28;20382;-74
2022/09/21 10:33:51;;;;;;;2.85;1.20;;;;;;;;;;5052972;28;20021;-74
2022/09/21 10:36:35;;;;;;;2.33;0.90;;;;;;;;;;5052263;28;20029;-69
2022/09/21 10:39:27;;;;;;;3.85;1.35;;;;;;;;;;5052953;28;20195;-73
2022/09/21 10:42:10;;;;;;;0.57;0.43;;;;;;;;;;5052841;28;20021;-74
2022/09/21 10:44:40;;;;;;;1.15;0.80;;;;;;;;;;5052705;28;20500;-70
2022/09/21 10:47:16;;;;;;;6.10;1.00;;;;;;;;;;5052641;28;20552;-73
2022/09/21 10:50:22;;;;;;;1.67;0.80;;;;;;;;;;5052786;28;20029;-65
2022/09/21 10:52:50;;;;;;;2.00;0.82;;;;;;;;;;5044519;28;20124;-68
2022/09/21 10:55:18;;;;;;;2.67;0.70;;;;;;;;;;5051528;28;20525;-74
2022/09/21 10:57:44;;;;;;;1.42;0.70;;;;;;;;;;5052646;28;20048;-68
2022/09/21 11:00:30;;;;;;;1.02;0.70;;;;;;;;;;5052420;28;20029;-71
2022/09/21 11:02:59;;;;;;;7.00;1.30;;;;;;;;;;5052734;28;20140;-66
2022/09/21 11:05:28;;;;;;;1.53;0.80;;;;;;;;;;5052820;28;20466;-73
2022/09/21 11:08:13;;;;;;;0.60;0.60;;;;;;;;;;5052493;28;20262;-69
2022/09/21 11:11:02;;;;;;;3.40;0.73;;;;;;;;;;5052624;28;20060;-69
2022/09/21 11:13:39;;;;;;;0.60;0.60;;;;;;;;;;5052153;28;20135;-68
2022/09/21 11:16:26;;;;;;;0.70;0.50;;;;;;;;;;5052607;28;20025;-68
2022/09/21 11:19:04;;;;;;;0.98;0.80;;;;;;;;;;5052002;28;20025;-71
2022/09/21 11:22:01;;;;;;;5.22;1.10;;;;;;;;;;5051980;28;20099;-74
2022/09/21 11:24:29;;;;;;;1.90;0.80;;;;;;;;;;5052326;28;20021;-66
2022/09/21 11:27:29;;;;;;;1.42;0.60;;;;;;;;;;5052253;28;20099;-73
2022/09/21 11:30:00;;;;;;;3.08;0.80;;;;;;;;;;5047792;28;20418;-74
2022/09/21 11:32:54;;;;;;;0.60;0.60;;;;;;;;;;5052170;28;20033;-74
2022/09/21 11:35:34;;;;;;;1.38;0.60;;;;;;;;;;5030012;28;20033;-72
2022/09/21 11:38:19;;;;;;;7.15;0.70;;;;;;;;;;5029703;28;20450;-66
2022/09/21 11:41:03;;;;;;;2.03;0.70;;;;;;;;;;5020657;28;20068;-67
2022/09/21 11:44:03;;;;;;;1.48;0.73;;;;;;;;;;5025720;28;20609;-71
2022/09/21 11:46:55;;;;;;;1.13;0.60;;;;;;;;;;4971059;28;20087;-71
2022/09/21 11:49:20;;;;;;;2.25;0.50;;;;;;;;;;4970667;28;20447;-67
2022/09/21 11:51:52;;;;;;;1.73;0.65;;;;;;;;;;4971046;28;20034;-66
2022/09/21 11:54:24;;;;;;;1.83;0.60;;;;;;;;;;4971018;28;20052;-71
2022/09/21 11:56:53;;;;;;;0.75;0.60;;;;;;;;;;4971191;28;20034;-68
2022/09/21 11:59:46;;;;;;;1.38;0.60;;;;;;;;;;4970977;28;20396;-65
2022/09/21 12:02:33;;;;;;;1.38;0.60;;;;;;;;;;4970971;28;20039;-72
2022/09/21 12:05:17;;;;;;;1.90;0.60;;;;;;;;;;4971131;28;20073;-67
2022/09/21 12:07:47;;;;;;;3.45;0.60;;;;;;;;;;4970645;28;20030;-72
2022/09/21 12:10:35;;;;;;;1.38;0.60;;;;;;;;;;4971113;28;20076;-76
2022/09/21 12:13:34;;;;;;;1.00;0.60;;;;;;;;;;4985224;28;20042;-70
2022/09/21 12:16:51;;;;;;;1.10;0.70;;;;;;;;;;4985627;28;20070;-75
2022/09/21 12:20:02;;;;;;;3.67;1.20;;;;;;;;;;4932538;29;20048;-73
2022/09/21 12:22:32;;;;;;;3.30;1.13;;;;;;;;;;4970043;28;20059;-67
2022/09/21 12:25:09;;;;;;;15.18;1.60;;;;;;;;;;4992688;28;20492;-69
2022/09/21 12:27:42;;;;;;;1.27;0.50;;;;;;;;;;4993865;28;20058;-69
2022/09/21 12:30:15;;;;;;;0.80;0.50;;;;;;;;;;4993909;28;20046;-75
2022/09/21 12:32:46;;;;;;;5.38;0.90;;;;;;;;;;4994071;28;20030;-70
2022/09/21 12:35:16;;;;;;;1.48;0.70;;;;;;;;;;4993684;28;20105;-75
2022/09/21 12:37:51;;;;;;;2.67;0.73;;;;;;;;;;4993517;28;20488;-69
2022/09/21 12:40:27;;;;;;;1.42;0.70;;;;;;;;;;4993598;28;20072;-69
2022/09/21 12:43:13;;;;;;;2.33;0.50;;;;;;;;;;4993548;28;20031;-76
2022/09/21 12:45:42;;;;;;;1.77;0.70;;;;;;;;;;4983412;28;20434;-70
2022/09/21 12:48:32;;;;;;;1.98;0.68;;;;;;;;;;4993747;28;20035;-76
2022/09/21 12:51:10;;;;;;;2.05;0.60;;;;;;;;;;4993946;28;20427;-76
2022/09/21 12:53:39;;;;;;;2.38;0.80;;;;;;;;;;4993774;28;20106;-76
2022/09/21 12:56:22;;;;;;;1.15;0.60;;;;;;;;;;5035089;28;20033;-71
2022/09/21 12:58:59;;;;;;;1.17;0.45;;;;;;;;;;5035406;28;20072;-67
2022/09/21 13:01:28;;;;;;;1.48;0.90;;;;;;;;;;5034787;28;20025;-69
2022/09/21 13:04:37;;;;;;;1.05;0.60;;;;;;;;;;5035162;28;20033;-69
2022/09/21 13:07:08;;;;;;;1.92;0.50;;;;;;;;;;5012876;28;20229;-76
2022/09/21 13:09:40;;;;;;;1.75;0.47;;;;;;;;;;5012823;28;20029;-76
2022/09/21 13:12:10;;;;;;;2.20;0.60;;;;;;;;;;5013195;28;20113;-75
2022/09/21 13:14:42;;;;;;;1.92;0.70;;;;;;;;;;5012894;28;20102;-75
2022/09/21 13:17:20;;;;;;;3.33;0.85;;;;;;;;;;5013133;28;20038;-75
2022/09/21 13:19:59;;;;;;;1.67;0.68;;;;;;;;;;4996121;28;20475;-76
2022/09/21 13:22:28;;;;;;;1.00;0.40;;;;;;;;;;4997392;28;20031;-75
2022/09/21 13:25:14;;;;;;;1.15;0.60;;;;;;;;;;4992930;28;20117;-74
2022/09/21 13:28:08;;;;;;;0.82;0.50;;;;;;;;;;4993159;28;20116;-74
2022/09/21 13:30:41;;;;;;;0.95;0.50;;;;;;;;;;4993157;28;20042;-68
2022/09/21 13:33:18;;;;;;;4.07;0.73;;;;;;;;;;4992779;28;20499;-76
2022/09/21 13:35:47;;;;;;;2.15;0.65;;;;;;;;;;5001687;28;20038;-72
2022/09/21 13:38:53;;;;;;;0.70;0.50;;;;;;;;;;5012328;28;20083;-76
2022/09/21 13:41:18;;;;;;;6.50;0.73;;;;;;;;;;5012190;28;20030;-75
2022/09/21 13:44:00;;;;;;;1.25;0.52;;;;;;;;;;5045811;28;20086;-76
2022/09/21 13:46:34;;;;;;;1.13;0.63;;;;;;;;;;5064790;28;20037;-73
2022/09/21 13:49:10;;;;;;;2.03;0.77;;;;;;;;;;5068129;28;20385;-72
2022/09/21 13:52:02;;;;;;;3.28;0.75;;;;;;;;;;5057507;28;20119;-72
2022/09/21 13:54:34;;;;;;;1.13;0.50;;;;;;;;;;5064139;28;20103;-74
2022/09/21 13:57:27;;;;;;;1.92;0.65;;;;;;;;;;5068024;28;20048;-70
2022/09/21 14:00:21;;;;;;;2.60;0.80;;;;;;;;;;5043439;28;20081;-76
2022/09/21 14:02:49;;;;;;;2.15;0.70;;;;;;;;;;4991022;28;20427;-77
2022/09/21 14:05:47;;;;;;;1.35;0.60;;;;;;;;;;5010924;28;20030;-70
2022/09/21 14:08:15;;;;;;;1.88;0.80;;;;;;;;;;5005500;28;20117;-73
2022/09/21 14:11:01;;;;;;;0.65;0.50;;;;;;;;;;5011672;28;20107;-73
2022/09/21 14:13:33;;;;;;;2.25;0.70;;;;;;;;;;5011329;28;20566;-73
2022/09/21 14:16:44;;;;;;;0.93;0.60;;;;;;;;;;5011943;28;20508;-76
2022/09/21 14:19:18;;;;;;;0.95;0.60;;;;;;;;;;4972610;28;20068;-67
2022/09/21 14:22:19;;;;;;;1.42;0.50;;;;;;;;;;4992218;28;20073;-74
2022/09/21 14:24:47;;;;;;;0.65;0.65;;;;;;;;;;4972660;28;20095;-75
2022/09/21 14:27:26;;;;;;;0.80;0.60;;;;;;;;;;4972395;28;20043;-70
2022/09/21 14:29:58;;;;;;;1.35;0.55;;;;;;;;;;4972821;28;20062;-76
2022/09/21 14:32:27;;;;;;;2.38;0.60;;;;;;;;;;4972520;28;20121;-69
2022/09/21 14:34:58;;;;;;;1.77;0.73;;;;;;;;;;4972379;28;20041;-77
2022/09/21 14:37:32;;;;;;;3.95;0.90;;;;;;;;;;4972205;28;20114;-67
2022/09/21 14:40:01;;;;;;;3.00;0.63;;;;;;;;;;4998228;28;20502;-70
2022/09/21 14:42:28;;;;;;;1.93;0.70;;;;;;;;;;4998192;28;20034;-68
2022/09/21 14:45:01;;;;;;;0.68;0.57;;;;;;;;;;4989733;28;20432;-73
2022/09/21 14:47:45;;;;;;;2.65;0.75;;;;;;;;;;4978772;28;20472;-69
2022/09/21 14:50:25;;;;;;;8.32;1.02;;;;;;;;;;4992628;28;20027;-70
2022/09/21 14:52:57;;;;;;;3.30;0.80;;;;;;;;;;4992550;28;20129;-68
2022/09/21 14:55:25;;;;;;;3.70;0.90;;;;;;;;;;5006598;28;20049;-71
2022/09/21 14:58:15;;;;;;;1.95;0.90;;;;;;;;;;5013774;28;20175;-72
2022/09/21 15:00:43;;;;;;;4.45;1.20;;;;;;;;;;5048467;28;20486;-67
2022/09/21 15:03:29;;;;;;;1.95;0.70;;;;;;;;;;5043975;28;20535;-69
2022/09/21 15:12:37;;;;;;;3.30;0.73;;;;;;;;;;5039282;28;20040;-68
2022/09/21 15:15:14;;;;;;;;;;;;;;;;;;5042460;28;20137;-75
2022/09/21 15:17:59;;;;;;;1.88;0.60;;;;;;;;;;5049758;28;19966;-69
2022/09/21 15:20:28;;;;;;;3.20;1.00;;;;;;;;;;5050606;28;20045;-68
2022/09/21 15:22:58;;;;;;;0.93;0.60;;;;;;;;;;5045435;28;20025;-72
2022/09/21 15:25:30;;;;;;;2.75;0.68;;;;;;;;;;5050194;28;20028;-72
2022/09/21 15:27:56;;;;;;;2.08;0.77;;;;;;;;;;5047142;28;20037;-68
2022/09/21 15:30:25;;;;;;;1.40;0.80;;;;;;;;;;5049466;28;20075;-69
2022/09/21 15:33:00;;;;;;;2.60;0.85;;;;;;;;;;5042994;28;20017;-69